Time,TemperatureF,DewpointF,PressureIn,WindDirection,WindDirectionDegrees,WindSpeedMPH,WindSpeedGustMPH,Humidity,HourlyPrecipIn,Conditions,Clouds,dailyrainin,SoftwareType,DateUTC
2013-07-10 00:05:00,65.0,52.1,30.00,North,357,0.0,0.0,63,0.00,,,0.00,Wunderground v.1.15,2013-07-10 07:05:00,
2013-07-10 00:15:00,64.8,52.3,30.01,NNE,14,0.0,0.0,64,0.00,,,0.00,Wunderground v.1.15,2013-07-10 07:15:00,
2013-07-10 00:25:00,64.5,52.0,30.01,NNE,25,0.0,0.0,64,0.00,,,0.00,Wunderground v.1.15,2013-07-10 07:25:00,
2013-07-10 00:35:00,64.3,51.9,30.00,NE,35,0.0,4.0,64,0.00,,,0.00,Wunderground v.1.15,2013-07-10 07:35:00,
2013-07-10 00:45:00,63.9,51.9,30.00,NNE,30,0.0,4.0,65,0.00,,,0.00,Wunderground v.1.15,2013-07-10 07:45:00,
2013-07-10 01:05:00,63.3,51.7,30.00,NNE,25,0.0,0.0,66,0.00,,,0.00,Wunderground v.1.15,2013-07-10 08:05:00,
2013-07-10 01:15:00,63.0,51.9,30.00,North,10,0.0,0.0,67,0.00,,,0.00,Wunderground v.1.15,2013-07-10 08:15:00,
2013-07-10 01:25:00,62.7,52.0,30.01,North,4,0.0,0.0,68,0.00,,,0.00,Wunderground v.1.15,2013-07-10 08:25:00,
2013-07-10 01:30:00,62.6,51.9,30.01,North,4,0.0,0.0,68,0.00,,,0.00,Wunderground v.1.15,2013-07-10 08:30:00,
2013-07-10 01:35:00,62.5,51.8,30.00,NNW,348,0.0,1.0,68,0.00,,,0.00,Wunderground v.1.15,2013-07-10 08:35:00,
2013-07-10 01:45:00,62.4,52.1,30.01,NNW,347,0.0,1.0,69,0.00,,,0.00,Wunderground v.1.15,2013-07-10 08:45:00,
2013-07-10 01:55:00,62.2,51.9,30.01,NNE,20,0.0,1.0,69,0.00,,,0.00,Wunderground v.1.15,2013-07-10 08:55:00,
2013-07-10 02:05:00,61.9,52.0,30.01,NNE,12,0.0,0.0,70,0.00,,,0.00,Wunderground v.1.15,2013-07-10 09:05:00,
2013-07-10 02:15:00,61.7,52.2,30.01,NNE,12,0.0,0.0,71,0.00,,,0.00,Wunderground v.1.15,2013-07-10 09:15:00,
2013-07-10 02:25:00,61.4,51.9,30.01,NNE,12,0.0,0.0,71,0.00,,,0.00,Wunderground v.1.15,2013-07-10 09:25:00,
2013-07-10 02:35:00,61.2,52.1,30.01,NNE,12,0.0,1.0,72,0.00,,,0.00,Wunderground v.1.15,2013-07-10 09:35:00,
2013-07-10 02:45:00,61.1,52.0,30.01,NNE,12,0.0,1.0,72,0.00,,,0.00,Wunderground v.1.15,2013-07-10 09:45:00,
2013-07-10 02:55:00,60.9,52.2,30.01,NNE,12,0.0,1.0,73,0.00,,,0.00,Wunderground v.1.15,2013-07-10 09:55:00,
2013-07-10 03:05:00,60.8,52.1,30.01,NNE,12,0.0,0.0,73,0.00,,,0.00,Wunderground v.1.15,2013-07-10 10:05:00,
2013-07-10 03:15:00,60.7,52.4,30.01,NNE,12,0.0,0.0,74,0.00,,,0.00,Wunderground v.1.15,2013-07-10 10:15:00,
2013-07-10 03:25:00,60.6,52.3,30.01,NNE,12,0.0,0.0,74,0.00,,,0.00,Wunderground v.1.15,2013-07-10 10:25:00,
2013-07-10 03:35:00,60.5,52.2,30.01,NNE,12,0.0,0.0,74,0.00,,,0.00,Wunderground v.1.15,2013-07-10 10:35:00,
2013-07-10 03:45:00,60.2,52.6,30.01,NNE,12,0.0,0.0,76,0.00,,,0.00,Wunderground v.1.15,2013-07-10 10:45:00,
2013-07-10 03:55:00,59.9,52.3,30.01,NNE,12,0.0,0.0,76,0.00,,,0.00,Wunderground v.1.15,2013-07-10 10:55:00,
2013-07-10 04:05:00,59.6,52.4,30.01,NNE,12,0.0,0.0,77,0.00,,,0.00,Wunderground v.1.15,2013-07-10 11:05:00,
2013-07-10 04:15:00,59.4,52.5,30.01,NNE,12,0.0,0.0,78,0.00,,,0.00,Wunderground v.1.15,2013-07-10 11:15:00,
2013-07-10 04:25:00,59.3,52.8,30.01,NNE,12,0.0,0.0,79,0.00,,,0.00,Wunderground v.1.15,2013-07-10 11:25:00,
2013-07-10 04:35:00,59.2,53.0,30.01,NNE,12,0.0,1.0,80,0.00,,,0.00,Wunderground v.1.15,2013-07-10 11:35:00,
2013-07-10 04:45:00,58.9,53.4,30.02,NW,304,0.0,1.0,82,0.00,,,0.00,Wunderground v.1.15,2013-07-10 11:45:00,
2013-07-10 04:55:00,58.7,53.5,30.01,NW,304,0.0,1.0,83,0.00,,,0.00,Wunderground v.1.15,2013-07-10 11:55:00,
2013-07-10 05:05:00,58.5,54.0,30.02,NW,304,0.0,0.0,85,0.00,,,0.00,Wunderground v.1.15,2013-07-10 12:05:00,
2013-07-10 05:15:00,58.2,54.0,30.02,WNW,302,0.0,0.0,86,0.00,,,0.00,Wunderground v.1.15,2013-07-10 12:15:00,
2013-07-10 05:25:00,57.8,54.0,30.02,NNW,333,0.0,0.0,87,0.00,,,0.00,Wunderground v.1.15,2013-07-10 12:25:00,
2013-07-10 05:35:00,57.5,53.7,30.02,SSW,211,0.0,0.0,87,0.00,,,0.00,Wunderground v.1.15,2013-07-10 12:35:00,
2013-07-10 05:45:00,57.3,53.8,30.02,SSW,206,0.0,0.0,88,0.00,,,0.00,Wunderground v.1.15,2013-07-10 12:45:00,
2013-07-10 05:55:00,57.2,54.0,30.02,WNW,301,0.0,0.0,89,0.00,,,0.00,Wunderground v.1.15,2013-07-10 12:55:00,
2013-07-10 06:05:00,57.6,54.1,30.02,NW,311,0.0,0.0,88,0.00,,,0.00,Wunderground v.1.15,2013-07-10 13:05:00,
2013-07-10 06:15:00,58.1,54.2,30.02,South,180,0.0,0.0,87,0.00,,,0.00,Wunderground v.1.15,2013-07-10 13:15:00,
2013-07-10 06:25:00,58.6,54.1,30.02,SSW,213,0.0,0.0,85,0.00,,,0.00,Wunderground v.1.15,2013-07-10 13:25:00,
2013-07-10 06:35:00,59.4,53.9,30.02,ESE,104,0.0,2.0,82,0.00,,,0.00,Wunderground v.1.15,2013-07-10 13:35:00,
2013-07-10 06:40:00,59.9,54.1,30.02,NE,52,0.0,2.0,81,0.00,,,0.00,Wunderground v.1.15,2013-07-10 13:40:00,
2013-07-10 06:45:00,60.3,53.8,30.02,SE,131,0.0,2.0,79,0.00,,,0.00,Wunderground v.1.15,2013-07-10 13:45:00,
2013-07-10 06:55:00,61.2,53.9,30.02,NW,310,0.0,2.0,77,0.00,,,0.00,Wunderground v.1.15,2013-07-10 13:55:00,
2013-07-10 07:05:00,62.4,54.4,30.03,SE,134,0.0,1.0,75,0.00,,,0.00,Wunderground v.1.15,2013-07-10 14:05:00,
2013-07-10 07:10:00,62.8,54.4,30.03,SE,145,0.0,0.0,74,0.00,,,0.00,Wunderground v.1.15,2013-07-10 14:10:00,
2013-07-10 07:15:00,63.1,54.3,30.03,SSE,157,0.0,1.0,73,0.00,,,0.00,Wunderground v.1.15,2013-07-10 14:15:00,
2013-07-10 07:25:00,63.4,54.2,30.03,WNW,303,0.0,0.0,72,0.00,,,0.00,Wunderground v.1.15,2013-07-10 14:25:00,
2013-07-10 07:35:00,64.2,54.2,30.03,South,185,0.0,1.0,70,0.00,,,0.00,Wunderground v.1.15,2013-07-10 14:35:00,
2013-07-10 07:40:00,64.6,54.6,30.03,NW,315,0.0,1.0,70,0.00,,,0.00,Wunderground v.1.15,2013-07-10 14:40:00,
2013-07-10 07:45:00,65.1,54.3,30.03,SE,141,0.0,1.0,68,0.00,,,0.00,Wunderground v.1.15,2013-07-10 14:45:00,
2013-07-10 07:55:00,65.6,54.8,30.03,East,101,1.0,1.0,68,0.00,,,0.00,Wunderground v.1.15,2013-07-10 14:55:00,
2013-07-10 08:05:00,65.4,55.0,30.04,SE,139,0.0,1.0,69,0.00,,,0.00,Wunderground v.1.15,2013-07-10 15:05:00,
2013-07-10 08:15:00,66.1,54.8,30.04,SE,136,0.0,0.0,67,0.00,,,0.00,Wunderground v.1.15,2013-07-10 15:15:00,
2013-07-10 08:25:00,66.2,54.1,30.04,SE,141,1.0,1.0,65,0.00,,,0.00,Wunderground v.1.15,2013-07-10 15:25:00,
2013-07-10 08:35:00,64.9,54.5,30.04,WSW,254,0.0,3.0,69,0.00,,,0.00,Wunderground v.1.15,2013-07-10 15:35:00,
2013-07-10 08:45:00,63.9,53.9,30.04,SE,135,0.0,3.0,70,0.00,,,0.00,Wunderground v.1.15,2013-07-10 15:45:00,
2013-07-10 08:55:00,62.6,53.8,30.04,WNW,303,0.0,3.0,73,0.00,,,0.00,Wunderground v.1.15,2013-07-10 15:55:00,
2013-07-10 09:05:00,61.3,53.7,30.04,SE,124,1.0,1.0,76,0.00,,,0.00,Wunderground v.1.15,2013-07-10 16:05:00,
2013-07-10 09:15:00,60.9,53.6,30.05,SE,145,1.0,1.0,77,0.00,,,0.00,Wunderground v.1.15,2013-07-10 16:15:00,
2013-07-10 09:25:00,60.9,53.6,30.05,SE,145,0.0,1.0,77,0.00,,,0.00,Wunderground v.1.15,2013-07-10 16:25:00,
2013-07-10 09:35:00,61.0,53.7,30.05,ESE,123,1.0,5.0,77,0.00,,,0.00,Wunderground v.1.15,2013-07-10 16:35:00,
2013-07-10 09:45:00,60.3,53.4,30.05,ESE,114,1.0,5.0,78,0.00,,,0.00,Wunderground v.1.15,2013-07-10 16:45:00,
2013-07-10 09:55:00,59.7,53.5,30.05,SSE,163,0.0,5.0,80,0.00,,,0.00,Wunderground v.1.15,2013-07-10 16:55:00,
2013-07-10 10:05:00,59.6,53.4,30.05,West,271,0.0,1.0,80,0.00,,,0.00,Wunderground v.1.15,2013-07-10 17:05:00,
2013-07-10 10:15:00,59.7,53.2,30.05,WSW,241,0.0,0.0,79,0.00,,,0.00,Wunderground v.1.15,2013-07-10 17:15:00,
2013-07-10 10:25:00,60.0,53.5,30.05,ESE,115,0.0,1.0,79,0.00,,,0.00,Wunderground v.1.15,2013-07-10 17:25:00,
2013-07-10 10:35:00,60.0,53.5,30.05,SSE,147,1.0,4.0,79,0.00,,,0.00,Wunderground v.1.15,2013-07-10 17:35:00,
2013-07-10 10:45:00,60.2,53.7,30.05,SE,136,0.0,4.0,79,0.00,,,0.00,Wunderground v.1.15,2013-07-10 17:45:00,
2013-07-10 10:55:00,60.8,53.9,30.05,West,277,1.0,4.0,78,0.00,,,0.00,Wunderground v.1.15,2013-07-10 17:55:00,
2013-07-10 11:05:00,61.8,54.2,30.05,SE,141,0.0,0.0,76,0.00,,,0.00,Wunderground v.1.15,2013-07-10 18:05:00,
2013-07-10 11:10:00,62.7,54.7,30.05,SSE,149,0.0,0.0,75,0.00,,,0.00,Wunderground v.1.15,2013-07-10 18:10:00,
2013-07-10 11:15:00,63.5,54.7,30.05,East,97,0.0,0.0,73,0.00,,,0.00,Wunderground v.1.15,2013-07-10 18:15:00,
2013-07-10 11:25:00,63.8,54.6,30.05,NNE,16,0.0,0.0,72,0.00,,,0.00,Wunderground v.1.15,2013-07-10 18:25:00,
2013-07-10 11:35:00,64.7,54.7,30.05,ESE,102,0.0,3.0,70,0.00,,,0.00,Wunderground v.1.15,2013-07-10 18:35:00,
2013-07-10 11:40:00,65.0,55.0,30.05,SSE,164,1.0,1.0,70,0.00,,,0.00,Wunderground v.1.15,2013-07-10 18:40:00,
2013-07-10 11:45:00,65.7,55.2,30.05,ESE,114,1.0,3.0,69,0.00,,,0.00,Wunderground v.1.15,2013-07-10 18:45:00,
2013-07-10 11:55:00,66.7,55.4,30.05,SSW,204,1.0,3.0,67,0.00,,,0.00,Wunderground v.1.15,2013-07-10 18:55:00,
2013-07-10 12:05:00,67.8,55.6,30.05,East,83,1.0,1.0,65,0.00,,,0.00,Wunderground v.1.15,2013-07-10 19:05:00,
2013-07-10 12:15:00,68.1,55.0,30.05,WNW,297,1.0,1.0,63,0.00,,,0.00,Wunderground v.1.15,2013-07-10 19:15:00,
2013-07-10 12:25:00,68.7,55.6,30.04,NW,313,0.0,1.0,63,0.00,,,0.00,Wunderground v.1.15,2013-07-10 19:25:00,
2013-07-10 12:35:00,68.0,55.4,30.04,SSE,152,1.0,2.0,64,0.00,,,0.00,Wunderground v.1.15,2013-07-10 19:35:00,
2013-07-10 12:45:00,68.6,55.5,30.04,SE,143,0.0,3.0,63,0.00,,,0.00,Wunderground v.1.15,2013-07-10 19:45:00,
2013-07-10 12:50:00,68.3,55.2,30.04,ESE,104,1.0,3.0,63,0.00,,,0.00,Wunderground v.1.15,2013-07-10 19:50:00,
2013-07-10 12:55:00,67.9,55.3,30.04,West,264,1.0,3.0,64,0.00,,,0.00,Wunderground v.1.15,2013-07-10 19:55:00,
2013-07-10 13:00:00,68.1,55.5,30.04,South,175,0.0,0.0,64,0.00,,,0.00,Wunderground v.1.15,2013-07-10 20:00:00,
2013-07-10 13:05:00,68.9,55.8,30.04,SE,124,0.0,0.0,63,0.00,,,0.00,Wunderground v.1.15,2013-07-10 20:05:00,
2013-07-10 13:15:00,67.4,55.2,30.04,SE,137,1.0,1.0,65,0.00,,,0.00,Wunderground v.1.15,2013-07-10 20:15:00,
2013-07-10 13:25:00,67.0,55.3,30.04,East,94,0.0,1.0,66,0.00,,,0.00,Wunderground v.1.15,2013-07-10 20:25:00,
2013-07-10 13:35:00,67.4,55.6,30.04,ESE,119,0.0,2.0,66,0.00,,,0.00,Wunderground v.1.15,2013-07-10 20:35:00,
2013-07-10 13:40:00,67.6,55.0,30.04,SE,133,0.0,3.0,64,0.00,,,0.00,Wunderground v.1.15,2013-07-10 20:40:00,
2013-07-10 13:45:00,67.0,54.8,30.04,East,89,0.0,3.0,65,0.00,,,0.00,Wunderground v.1.15,2013-07-10 20:45:00,
2013-07-10 13:55:00,66.0,54.7,30.04,SE,131,0.0,3.0,67,0.00,,,0.00,Wunderground v.1.15,2013-07-10 20:55:00,
2013-07-10 14:00:00,65.9,55.0,30.03,SE,132,0.0,0.0,68,0.00,,,0.00,Wunderground v.1.15,2013-07-10 21:00:00,
2013-07-10 14:10:00,66.5,55.2,30.03,SE,146,0.0,0.0,67,0.00,,,0.00,Wunderground v.1.15,2013-07-10 21:10:00,
2013-07-10 14:15:00,67.7,55.9,30.03,SSE,152,0.0,0.0,66,0.00,,,0.00,Wunderground v.1.15,2013-07-10 21:15:00,
2013-07-10 14:20:00,68.1,55.5,30.03,SE,137,0.0,1.0,64,0.00,,,0.00,Wunderground v.1.15,2013-07-10 21:20:00,
2013-07-10 14:25:00,67.6,55.4,30.03,ESE,112,0.0,1.0,65,0.00,,,0.00,Wunderground v.1.15,2013-07-10 21:25:00,
2013-07-10 14:35:00,66.2,54.9,30.02,SE,137,0.0,6.0,67,0.00,,,0.00,Wunderground v.1.15,2013-07-10 21:35:00,
2013-07-10 14:45:00,66.2,54.9,30.02,SE,133,0.0,6.0,67,0.00,,,0.00,Wunderground v.1.15,2013-07-10 21:45:00,
2013-07-10 14:55:00,68.6,55.9,30.02,SE,145,0.0,6.0,64,0.00,,,0.00,Wunderground v.1.15,2013-07-10 21:55:00,
2013-07-10 15:05:00,69.3,55.7,30.01,SE,134,0.0,1.0,62,0.00,,,0.00,Wunderground v.1.15,2013-07-10 22:05:00,
2013-07-10 15:10:00,69.5,55.9,30.01,South,180,0.0,1.0,62,0.00,,,0.00,Wunderground v.1.15,2013-07-10 22:10:00,
2013-07-10 15:15:00,69.3,55.7,30.01,SSE,166,0.0,1.0,62,0.00,,,0.00,Wunderground v.1.15,2013-07-10 22:15:00,
2013-07-10 15:25:00,68.6,55.5,30.00,ESE,118,0.0,0.0,63,0.00,,,0.00,Wunderground v.1.15,2013-07-10 22:25:00,
2013-07-10 15:35:00,70.6,56.5,30.00,SSE,149,0.0,4.0,61,0.00,,,0.00,Wunderground v.1.15,2013-07-10 22:35:00,
2013-07-10 15:45:00,72.5,56.4,30.00,East,85,0.0,4.0,57,0.00,,,0.00,Wunderground v.1.15,2013-07-10 22:45:00,
2013-07-10 15:55:00,73.0,56.4,30.00,SE,124,0.0,4.0,56,0.00,,,0.00,Wunderground v.1.15,2013-07-10 22:55:00,
2013-07-10 16:05:00,73.9,57.2,29.99,NW,315,0.0,0.0,56,0.00,,,0.00,Wunderground v.1.15,2013-07-10 23:05:00,
2013-07-10 16:15:00,74.5,56.8,29.99,ESE,107,0.0,0.0,54,0.00,,,0.00,Wunderground v.1.15,2013-07-10 23:15:00,
2013-07-10 16:25:00,74.5,56.8,29.98,WNW,297,0.0,0.0,54,0.00,,,0.00,Wunderground v.1.15,2013-07-10 23:25:00,
2013-07-10 16:35:00,74.1,55.9,29.98,SSE,149,0.0,1.0,53,0.00,,,0.00,Wunderground v.1.15,2013-07-10 23:35:00,
2013-07-10 16:40:00,73.3,56.2,29.98,SE,126,0.0,2.0,55,0.00,,,0.00,Wunderground v.1.15,2013-07-10 23:40:00,
2013-07-10 16:45:00,73.5,56.8,29.97,SE,134,0.0,2.0,56,0.00,,,0.00,Wunderground v.1.15,2013-07-10 23:45:00,
2013-07-10 16:55:00,73.5,56.3,29.97,East,82,0.0,2.0,55,0.00,,,0.00,Wunderground v.1.15,2013-07-10 23:55:00,
2013-07-10 17:05:00,73.9,56.7,29.97,NNW,327,0.0,0.0,55,0.00,,,0.00,Wunderground v.1.15,2013-07-11 00:05:00,
2013-07-10 17:15:00,74.8,57.0,29.96,SE,139,0.0,0.0,54,0.00,,,0.00,Wunderground v.1.15,2013-07-11 00:15:00,
2013-07-10 17:25:00,72.4,55.8,29.96,SSE,166,0.0,0.0,56,0.00,,,0.00,Wunderground v.1.15,2013-07-11 00:25:00,
2013-07-10 17:35:00,70.9,55.9,29.96,NW,308,0.0,4.0,59,0.00,,,0.00,Wunderground v.1.15,2013-07-11 00:35:00,
2013-07-10 17:45:00,70.7,56.1,29.96,NW,308,0.0,4.0,60,0.00,,,0.00,Wunderground v.1.15,2013-07-11 00:45:00,
2013-07-10 17:50:00,70.7,56.1,29.96,NW,326,0.0,4.0,60,0.00,,,0.00,Wunderground v.1.15,2013-07-11 00:50:00,
2013-07-10 17:55:00,70.9,55.9,29.95,NW,312,0.0,4.0,59,0.00,,,0.00,Wunderground v.1.15,2013-07-11 00:55:00,
2013-07-10 18:05:00,71.0,55.9,29.96,NW,310,1.0,8.0,59,0.00,,,0.00,Wunderground v.1.15,2013-07-11 01:05:00,
2013-07-10 18:15:00,69.9,55.8,29.95,NW,307,2.0,4.0,61,0.00,,,0.00,Wunderground v.1.15,2013-07-11 01:15:00,
2013-07-10 18:25:00,70.0,55.9,29.95,NNW,345,1.0,2.0,61,0.00,,,0.00,Wunderground v.1.15,2013-07-11 01:25:00,
2013-07-10 18:35:00,70.2,56.1,29.94,North,1,1.0,2.0,61,0.00,,,0.00,Wunderground v.1.15,2013-07-11 01:35:00,
2013-07-10 18:45:00,69.5,55.9,29.94,NW,319,1.0,2.0,62,0.00,,,0.00,Wunderground v.1.15,2013-07-11 01:45:00,
2013-07-10 18:55:00,68.8,55.7,29.94,WNW,301,0.0,2.0,63,0.00,,,0.00,Wunderground v.1.15,2013-07-11 01:55:00,
2013-07-10 19:05:00,68.3,55.6,29.94,North,9,1.0,1.0,64,0.00,,,0.00,Wunderground v.1.15,2013-07-11 02:05:00,
2013-07-10 19:15:00,67.4,55.2,29.94,NNE,24,0.0,0.0,65,0.00,,,0.00,Wunderground v.1.15,2013-07-11 02:15:00,
2013-07-10 19:25:00,67.5,55.3,29.94,NW,318,0.0,0.0,65,0.00,,,0.00,Wunderground v.1.15,2013-07-11 02:25:00,
2013-07-10 19:35:00,66.9,55.2,29.93,NNW,333,0.0,12.0,66,0.00,,,0.00,Wunderground v.1.15,2013-07-11 02:35:00,
2013-07-10 19:45:00,67.0,55.3,29.93,North,8,0.0,12.0,66,0.00,,,0.00,Wunderground v.1.15,2013-07-11 02:45:00,
2013-07-10 19:55:00,66.5,54.4,29.94,North,358,2.0,12.0,65,0.00,,,0.00,Wunderground v.1.15,2013-07-11 02:55:00,
2013-07-10 20:05:00,65.4,54.2,29.93,NW,306,2.0,2.0,67,0.00,,,0.00,Wunderground v.1.15,2013-07-11 03:05:00,
2013-07-10 20:15:00,64.4,53.6,29.93,NW,304,4.0,4.0,68,0.00,,,0.00,Wunderground v.1.15,2013-07-11 03:15:00,
2013-07-10 20:20:00,64.0,53.6,29.93,NW,305,4.0,4.0,69,0.00,,,0.00,Wunderground v.1.15,2013-07-11 03:20:00,
2013-07-10 20:25:00,63.9,53.9,29.93,NNW,328,2.0,4.0,70,0.00,,,0.00,Wunderground v.1.15,2013-07-11 03:25:00,
2013-07-10 20:35:00,63.7,53.7,29.93,NNW,346,2.0,7.0,70,0.00,,,0.00,Wunderground v.1.15,2013-07-11 03:35:00,
2013-07-10 20:45:00,63.4,53.4,29.93,NW,310,2.0,7.0,70,0.00,,,0.00,Wunderground v.1.15,2013-07-11 03:45:00,
2013-07-10 20:55:00,63.1,53.2,29.93,NW,322,1.0,7.0,70,0.00,,,0.00,Wunderground v.1.15,2013-07-11 03:55:00,
2013-07-10 21:05:00,62.3,52.8,29.93,NW,325,2.0,2.0,71,0.00,,,0.00,Wunderground v.1.15,2013-07-11 04:05:00,
2013-07-10 21:10:00,62.0,52.5,29.93,WNW,295,2.0,4.0,71,0.00,,,0.00,Wunderground v.1.15,2013-07-11 04:10:00,
2013-07-10 21:15:00,61.6,52.5,29.93,North,349,1.0,4.0,72,0.00,,,0.00,Wunderground v.1.15,2013-07-11 04:15:00,
2013-07-10 21:20:00,61.4,52.7,29.94,NNE,13,1.0,1.0,73,0.00,,,0.00,Wunderground v.1.15,2013-07-11 04:20:00,
2013-07-10 21:25:00,61.2,52.5,29.94,NNW,332,0.0,1.0,73,0.00,,,0.00,Wunderground v.1.15,2013-07-11 04:25:00,
2013-07-10 21:35:00,61.1,52.4,29.94,WNW,299,0.0,9.0,73,0.00,,,0.00,Wunderground v.1.15,2013-07-11 04:35:00,
2013-07-10 21:40:00,61.1,52.4,29.94,NW,321,0.0,9.0,73,0.00,,,0.00,Wunderground v.1.15,2013-07-11 04:40:00,
2013-07-10 21:45:00,61.2,52.5,29.94,NNE,12,0.0,9.0,73,0.00,,,0.00,Wunderground v.1.15,2013-07-11 04:45:00,
2013-07-10 21:55:00,61.2,52.5,29.95,NNW,345,0.0,9.0,73,0.00,,,0.00,Wunderground v.1.15,2013-07-11 04:55:00,
2013-07-10 22:05:00,61.1,52.4,29.95,NNW,332,1.0,1.0,73,0.00,,,0.00,Wunderground v.1.15,2013-07-11 05:05:00,
2013-07-10 22:15:00,61.3,52.2,29.95,North,2,0.0,1.0,72,0.00,,,0.00,Wunderground v.1.15,2013-07-11 05:15:00,
2013-07-10 22:25:00,61.3,52.2,29.95,NW,310,1.0,1.0,72,0.00,,,0.00,Wunderground v.1.15,2013-07-11 05:25:00,
2013-07-10 22:35:00,61.3,52.2,29.95,NNE,24,0.0,8.0,72,0.00,,,0.00,Wunderground v.1.15,2013-07-11 05:35:00,
2013-07-10 22:45:00,61.1,52.0,29.96,NE,38,0.0,8.0,72,0.00,,,0.00,Wunderground v.1.15,2013-07-11 05:45:00,
2013-07-10 22:55:00,61.1,52.0,29.96,NE,38,0.0,8.0,72,0.00,,,0.00,Wunderground v.1.15,2013-07-11 05:55:00,
2013-07-10 23:05:00,61.1,50.8,29.96,North,358,0.0,0.0,69,0.00,,,0.00,Wunderground v.1.15,2013-07-11 06:05:00,
2013-07-10 23:15:00,61.2,50.9,29.97,North,2,0.0,0.0,69,0.00,,,0.00,Wunderground v.1.15,2013-07-11 06:15:00,
2013-07-10 23:25:00,61.2,51.3,29.97,NE,43,0.0,0.0,70,0.00,,,0.00,Wunderground v.1.15,2013-07-11 06:25:00,
2013-07-10 23:35:00,61.0,51.1,29.97,NNW,330,0.0,7.0,70,0.00,,,0.00,Wunderground v.1.15,2013-07-11 06:35:00,
2013-07-10 23:45:00,60.7,50.9,29.97,NNE,12,0.0,7.0,70,0.00,,,0.00,Wunderground v.1.15,2013-07-11 06:45:00,
2013-07-10 23:55:00,60.4,50.6,29.97,East,95,0.0,7.0,70,0.00,,,0.00,Wunderground v.1.15,2013-07-11 06:55:00,